sensor_id;sensor_type;location;lat;lon;timestamp;P1;durP1;ratioP1;P2;durP2;ratioP2
57297;SDS011;43147;50.972;18.210;2022-09-09T00:02:19;23.90;;;16.10;;
57297;SDS011;43147;50.972;18.210;2022-09-09T00:07:54;24.50;;;16.00;;
57297;SDS011;43147;50.972;18.210;2022-09-09T00:15:56;29.00;;;15.40;;
57297;SDS011;43147;50.972;18.210;2022-09-09T00:18:29;33.20;;;16.90;;
57297;SDS011;43147;50.972;18.210;2022-09-09T00:23:35;28.30;;;17.90;;
57297;SDS011;43147;50.972;18.210;2022-09-09T00:26:14;28.70;;;18.50;;
57297;SDS011;43147;50.972;18.210;2022-09-09T00:28:45;28.20;;;19.00;;
57297;SDS011;43147;50.972;18.210;2022-09-09T00:31:34;26.00;;;18.70;;
57297;SDS011;43147;50.972;18.210;2022-09-09T00:34:05;25.70;;;18.90;;
57297;SDS011;43147;50.972;18.210;2022-09-09T00:36:50;27.60;;;19.60;;
57297;SDS011;43147;50.972;18.210;2022-09-09T00:39:25;26.40;;;20.20;;
57297;SDS011;43147;50.972;18.210;2022-09-09T00:50:02;35.90;;;21.20;;
57297;SDS011;43147;50.972;18.210;2022-09-09T00:52:39;38.50;;;21.50;;
57297;SDS011;43147;50.972;18.210;2022-09-09T00:55:14;38.10;;;22.00;;
57297;SDS011;43147;50.972;18.210;2022-09-09T00:57:44;53.00;;;22.50;;
57297;SDS011;43147;50.972;18.210;2022-09-09T01:08:35;54.60;;;24.20;;
57297;SDS011;43147;50.972;18.210;2022-09-09T01:11:24;63.80;;;25.00;;
57297;SDS011;43147;50.972;18.210;2022-09-09T01:13:53;48.80;;;24.10;;
57297;SDS011;43147;50.972;18.210;2022-09-09T01:16:24;52.10;;;24.70;;
57297;SDS011;43147;50.972;18.210;2022-09-09T01:18:51;54.20;;;26.60;;
57297;SDS011;43147;50.972;18.210;2022-09-09T01:27:16;62.10;;;31.00;;
57297;SDS011;43147;50.972;18.210;2022-09-09T01:29:43;60.40;;;30.70;;
57297;SDS011;43147;50.972;18.210;2022-09-09T01:38:05;76.00;;;33.80;;
57297;SDS011;43147;50.972;18.210;2022-09-09T01:40:31;72.90;;;32.60;;
57297;SDS011;43147;50.972;18.210;2022-09-09T01:42:57;78.70;;;35.80;;
57297;SDS011;43147;50.972;18.210;2022-09-09T01:45:23;83.70;;;34.90;;
57297;SDS011;43147;50.972;18.210;2022-09-09T01:47:50;80.00;;;34.30;;
57297;SDS011;43147;50.972;18.210;2022-09-09T01:50:17;88.90;;;36.50;;
57297;SDS011;43147;50.972;18.210;2022-09-09T01:52:47;80.70;;;34.30;;
57297;SDS011;43147;50.972;18.210;2022-09-09T01:55:16;78.80;;;34.30;;
57297;SDS011;43147;50.972;18.210;2022-09-09T02:00:16;90.30;;;34.80;;
57297;SDS011;43147;50.972;18.210;2022-09-09T02:02:48;77.60;;;34.50;;
57297;SDS011;43147;50.972;18.210;2022-09-09T02:05:38;84.70;;;35.10;;
57297;SDS011;43147;50.972;18.210;2022-09-09T02:08:06;109.10;;;34.70;;
57297;SDS011;43147;50.972;18.210;2022-09-09T02:13:12;104.80;;;35.90;;
57297;SDS011;43147;50.972;18.210;2022-09-09T02:15:53;91.70;;;34.60;;
57297;SDS011;43147;50.972;18.210;2022-09-09T02:21:28;90.90;;;36.40;;
57297;SDS011;43147;50.972;18.210;2022-09-09T02:23:56;74.40;;;36.00;;
57297;SDS011;43147;50.972;18.210;2022-09-09T02:26:24;67.50;;;36.30;;
57297;SDS011;43147;50.972;18.210;2022-09-09T02:28:51;73.60;;;36.20;;
57297;SDS011;43147;50.972;18.210;2022-09-09T02:31:20;61.00;;;35.50;;
57297;SDS011;43147;50.972;18.210;2022-09-09T02:33:57;64.10;;;35.70;;
57297;SDS011;43147;50.972;18.210;2022-09-09T02:36:26;58.20;;;34.50;;
57297;SDS011;43147;50.972;18.210;2022-09-09T02:38:54;53.00;;;34.60;;
57297;SDS011;43147;50.972;18.210;2022-09-09T02:41:23;57.50;;;34.50;;
57297;SDS011;43147;50.972;18.210;2022-09-09T02:43:50;57.70;;;34.50;;
57297;SDS011;43147;50.972;18.210;2022-09-09T02:46:26;51.30;;;34.70;;
57297;SDS011;43147;50.972;18.210;2022-09-09T02:49:01;50.30;;;35.30;;
57297;SDS011;43147;50.972;18.210;2022-09-09T02:51:45;58.10;;;36.60;;
57297;SDS011;43147;50.972;18.210;2022-09-09T02:54:34;49.20;;;34.80;;
57297;SDS011;43147;50.972;18.210;2022-09-09T02:57:04;52.50;;;35.30;;
57297;SDS011;43147;50.972;18.210;2022-09-09T02:59:43;49.00;;;35.40;;
57297;SDS011;43147;50.972;18.210;2022-09-09T03:02:09;50.70;;;35.80;;
57297;SDS011;43147;50.972;18.210;2022-09-09T03:04:39;50.30;;;37.40;;
57297;SDS011;43147;50.972;18.210;2022-09-09T03:07:05;51.80;;;37.20;;
57297;SDS011;43147;50.972;18.210;2022-09-09T03:09:31;49.00;;;38.00;;
57297;SDS011;43147;50.972;18.210;2022-09-09T03:11:58;51.10;;;38.70;;
57297;SDS011;43147;50.972;18.210;2022-09-09T03:14:24;55.90;;;37.80;;
57297;SDS011;43147;50.972;18.210;2022-09-09T03:16:50;49.10;;;36.60;;
57297;SDS011;43147;50.972;18.210;2022-09-09T03:19:17;52.50;;;37.00;;
57297;SDS011;43147;50.972;18.210;2022-09-09T03:21:44;51.40;;;39.20;;
57297;SDS011;43147;50.972;18.210;2022-09-09T03:24:10;48.00;;;37.10;;
57297;SDS011;43147;50.972;18.210;2022-09-09T03:26:36;47.60;;;36.50;;
57297;SDS011;43147;50.972;18.210;2022-09-09T03:29:03;48.70;;;38.00;;
57297;SDS011;43147;50.972;18.210;2022-09-09T03:31:32;48.10;;;37.70;;
57297;SDS011;43147;50.972;18.210;2022-09-09T03:34:02;54.40;;;39.70;;
57297;SDS011;43147;50.972;18.210;2022-09-09T03:36:28;54.70;;;38.80;;
57297;SDS011;43147;50.972;18.210;2022-09-09T03:38:54;52.20;;;38.50;;
57297;SDS011;43147;50.972;18.210;2022-09-09T03:41:21;50.30;;;38.70;;
57297;SDS011;43147;50.972;18.210;2022-09-09T03:43:52;50.50;;;38.20;;
57297;SDS011;43147;50.972;18.210;2022-09-09T03:46:22;49.10;;;36.10;;
57297;SDS011;43147;50.972;18.210;2022-09-09T03:48:49;47.10;;;38.10;;
57297;SDS011;43147;50.972;18.210;2022-09-09T03:51:16;49.30;;;36.60;;
57297;SDS011;43147;50.972;18.210;2022-09-09T03:53:42;51.40;;;39.10;;
57297;SDS011;43147;50.972;18.210;2022-09-09T03:56:08;48.90;;;38.70;;
57297;SDS011;43147;50.972;18.210;2022-09-09T03:58:35;51.80;;;38.30;;
57297;SDS011;43147;50.972;18.210;2022-09-09T04:01:05;48.60;;;38.40;;
57297;SDS011;43147;50.972;18.210;2022-09-09T04:03:38;48.30;;;37.60;;
57297;SDS011;43147;50.972;18.210;2022-09-09T04:06:05;44.90;;;37.60;;
57297;SDS011;43147;50.972;18.210;2022-09-09T04:08:33;45.00;;;39.20;;
57297;SDS011;43147;50.972;18.210;2022-09-09T04:11:01;48.90;;;39.40;;
57297;SDS011;43147;50.972;18.210;2022-09-09T04:13:30;44.10;;;37.70;;
57297;SDS011;43147;50.972;18.210;2022-09-09T04:15:59;46.10;;;39.70;;
57297;SDS011;43147;50.972;18.210;2022-09-09T04:18:26;45.70;;;38.20;;
57297;SDS011;43147;50.972;18.210;2022-09-09T04:20:53;44.60;;;37.40;;
57297;SDS011;43147;50.972;18.210;2022-09-09T04:23:20;44.40;;;36.90;;
57297;SDS011;43147;50.972;18.210;2022-09-09T04:25:52;43.10;;;36.30;;
57297;SDS011;43147;50.972;18.210;2022-09-09T04:28:19;39.60;;;34.30;;
57297;SDS011;43147;50.972;18.210;2022-09-09T04:30:48;39.50;;;35.30;;
57297;SDS011;43147;50.972;18.210;2022-09-09T04:33:14;43.50;;;37.50;;
57297;SDS011;43147;50.972;18.210;2022-09-09T04:35:49;41.30;;;36.80;;
57297;SDS011;43147;50.972;18.210;2022-09-09T04:38:16;42.30;;;36.70;;
57297;SDS011;43147;50.972;18.210;2022-09-09T04:40:49;40.00;;;35.70;;
57297;SDS011;43147;50.972;18.210;2022-09-09T04:43:17;42.60;;;38.00;;
57297;SDS011;43147;50.972;18.210;2022-09-09T04:45:46;42.80;;;37.50;;
57297;SDS011;43147;50.972;18.210;2022-09-09T04:48:13;43.50;;;38.40;;
57297;SDS011;43147;50.972;18.210;2022-09-09T04:50:39;43.40;;;36.90;;
57297;SDS011;43147;50.972;18.210;2022-09-09T04:53:05;40.90;;;36.20;;
57297;SDS011;43147;50.972;18.210;2022-09-09T04:55:32;38.50;;;34.50;;
57297;SDS011;43147;50.972;18.210;2022-09-09T04:58:02;39.30;;;35.00;;
57297;SDS011;43147;50.972;18.210;2022-09-09T05:00:32;41.70;;;34.00;;
57297;SDS011;43147;50.972;18.210;2022-09-09T05:03:02;37.20;;;32.80;;
57297;SDS011;43147;50.972;18.210;2022-09-09T05:05:29;37.90;;;34.00;;
57297;SDS011;43147;50.972;18.210;2022-09-09T05:08:00;37.30;;;33.30;;
57297;SDS011;43147;50.972;18.210;2022-09-09T05:10:32;41.10;;;34.00;;
57297;SDS011;43147;50.972;18.210;2022-09-09T05:12:58;35.70;;;32.20;;
57297;SDS011;43147;50.972;18.210;2022-09-09T05:15:24;37.50;;;32.30;;
57297;SDS011;43147;50.972;18.210;2022-09-09T05:17:49;37.10;;;33.30;;
57297;SDS011;43147;50.972;18.210;2022-09-09T05:20:17;36.00;;;32.40;;
57297;SDS011;43147;50.972;18.210;2022-09-09T05:22:43;34.30;;;31.00;;
57297;SDS011;43147;50.972;18.210;2022-09-09T05:25:09;35.40;;;31.70;;
57297;SDS011;43147;50.972;18.210;2022-09-09T05:27:35;35.00;;;30.00;;
57297;SDS011;43147;50.972;18.210;2022-09-09T05:30:01;32.10;;;29.10;;
57297;SDS011;43147;50.972;18.210;2022-09-09T05:32:27;32.30;;;29.00;;
57297;SDS011;43147;50.972;18.210;2022-09-09T05:34:58;30.80;;;27.70;;
57297;SDS011;43147;50.972;18.210;2022-09-09T05:37:24;32.70;;;27.40;;
57297;SDS011;43147;50.972;18.210;2022-09-09T05:39:49;30.50;;;27.50;;
57297;SDS011;43147;50.972;18.210;2022-09-09T05:42:15;30.80;;;25.70;;
57297;SDS011;43147;50.972;18.210;2022-09-09T05:44:41;28.00;;;25.40;;
57297;SDS011;43147;50.972;18.210;2022-09-09T05:47:10;25.20;;;22.80;;
57297;SDS011;43147;50.972;18.210;2022-09-09T05:49:35;13.80;;;12.70;;
57297;SDS011;43147;50.972;18.210;2022-09-09T05:52:02;9.90;;;9.10;;
57297;SDS011;43147;50.972;18.210;2022-09-09T05:54:29;8.30;;;7.60;;
57297;SDS011;43147;50.972;18.210;2022-09-09T05:56:57;7.20;;;6.60;;
57297;SDS011;43147;50.972;18.210;2022-09-09T05:59:24;6.70;;;6.10;;
57297;SDS011;43147;50.972;18.210;2022-09-09T06:01:52;8.30;;;5.20;;
57297;SDS011;43147;50.972;18.210;2022-09-09T06:04:19;6.60;;;4.80;;
57297;SDS011;43147;50.972;18.210;2022-09-09T06:06:49;6.00;;;4.30;;
57297;SDS011;43147;50.972;18.210;2022-09-09T06:09:15;4.60;;;4.10;;
57297;SDS011;43147;50.972;18.210;2022-09-09T06:11:40;3.90;;;3.50;;
57297;SDS011;43147;50.972;18.210;2022-09-09T06:14:08;5.00;;;2.80;;
57297;SDS011;43147;50.972;18.210;2022-09-09T06:16:37;5.50;;;3.10;;
57297;SDS011;43147;50.972;18.210;2022-09-09T06:19:03;3.30;;;3.00;;
57297;SDS011;43147;50.972;18.210;2022-09-09T06:21:30;5.30;;;2.60;;
57297;SDS011;43147;50.972;18.210;2022-09-09T06:23:58;3.20;;;2.50;;
57297;SDS011;43147;50.972;18.210;2022-09-09T06:26:27;5.90;;;2.90;;
57297;SDS011;43147;50.972;18.210;2022-09-09T06:28:56;3.20;;;2.90;;
57297;SDS011;43147;50.972;18.210;2022-09-09T06:31:24;2.70;;;2.50;;
57297;SDS011;43147;50.972;18.210;2022-09-09T06:33:56;3.50;;;3.20;;
57297;SDS011;43147;50.972;18.210;2022-09-09T06:36:23;3.60;;;3.30;;
57297;SDS011;43147;50.972;18.210;2022-09-09T06:38:52;5.50;;;3.90;;
57297;SDS011;43147;50.972;18.210;2022-09-09T06:41:18;7.00;;;4.00;;
57297;SDS011;43147;50.972;18.210;2022-09-09T06:43:48;5.20;;;4.20;;
57297;SDS011;43147;50.972;18.210;2022-09-09T06:46:18;4.20;;;3.90;;
57297;SDS011;43147;50.972;18.210;2022-09-09T06:48:45;4.90;;;4.40;;
57297;SDS011;43147;50.972;18.210;2022-09-09T06:51:18;10.10;;;4.60;;
57297;SDS011;43147;50.972;18.210;2022-09-09T06:53:47;5.00;;;3.60;;
57297;SDS011;43147;50.972;18.210;2022-09-09T06:59:00;3.90;;;3.00;;
57297;SDS011;43147;50.972;18.210;2022-09-09T07:01:30;3.40;;;3.10;;
57297;SDS011;43147;50.972;18.210;2022-09-09T07:03:58;5.00;;;3.30;;
57297;SDS011;43147;50.972;18.210;2022-09-09T07:06:25;5.70;;;3.80;;
57297;SDS011;43147;50.972;18.210;2022-09-09T07:08:55;4.60;;;4.20;;
57297;SDS011;43147;50.972;18.210;2022-09-09T07:11:24;4.90;;;4.20;;
57297;SDS011;43147;50.972;18.210;2022-09-09T07:13:52;4.30;;;4.00;;
57297;SDS011;43147;50.972;18.210;2022-09-09T07:16:19;5.50;;;3.60;;
57297;SDS011;43147;50.972;18.210;2022-09-09T07:18:48;7.70;;;5.50;;
57297;SDS011;43147;50.972;18.210;2022-09-09T07:21:14;5.70;;;4.00;;
57297;SDS011;43147;50.972;18.210;2022-09-09T07:23:40;4.80;;;4.30;;
57297;SDS011;43147;50.972;18.210;2022-09-09T07:26:11;5.00;;;4.20;;
57297;SDS011;43147;50.972;18.210;2022-09-09T07:28:41;6.70;;;3.80;;
57297;SDS011;43147;50.972;18.210;2022-09-09T07:31:08;3.80;;;3.50;;
57297;SDS011;43147;50.972;18.210;2022-09-09T07:33:39;4.20;;;3.70;;
57297;SDS011;43147;50.972;18.210;2022-09-09T07:36:07;5.20;;;3.90;;
57297;SDS011;43147;50.972;18.210;2022-09-09T07:38:41;4.80;;;4.30;;
57297;SDS011;43147;50.972;18.210;2022-09-09T07:41:11;7.20;;;4.20;;
57297;SDS011;43147;50.972;18.210;2022-09-09T07:43:41;6.20;;;3.70;;
57297;SDS011;43147;50.972;18.210;2022-09-09T07:46:08;5.80;;;4.00;;
57297;SDS011;43147;50.972;18.210;2022-09-09T07:48:34;4.90;;;4.00;;
57297;SDS011;43147;50.972;18.210;2022-09-09T07:51:04;4.20;;;3.70;;
57297;SDS011;43147;50.972;18.210;2022-09-09T07:53:36;4.20;;;3.90;;
57297;SDS011;43147;50.972;18.210;2022-09-09T07:56:02;6.20;;;4.20;;
57297;SDS011;43147;50.972;18.210;2022-09-09T07:58:29;4.70;;;3.90;;
57297;SDS011;43147;50.972;18.210;2022-09-09T08:00:55;5.00;;;3.80;;
57297;SDS011;43147;50.972;18.210;2022-09-09T08:03:22;3.70;;;3.50;;
57297;SDS011;43147;50.972;18.210;2022-09-09T08:05:47;3.80;;;3.50;;
57297;SDS011;43147;50.972;18.210;2022-09-09T08:08:13;5.10;;;3.90;;
57297;SDS011;43147;50.972;18.210;2022-09-09T08:10:38;7.20;;;4.30;;
57297;SDS011;43147;50.972;18.210;2022-09-09T08:13:05;4.80;;;4.00;;
57297;SDS011;43147;50.972;18.210;2022-09-09T08:15:31;6.00;;;3.30;;
57297;SDS011;43147;50.972;18.210;2022-09-09T08:17:59;4.00;;;3.60;;
57297;SDS011;43147;50.972;18.210;2022-09-09T08:20:25;5.90;;;3.10;;
57297;SDS011;43147;50.972;18.210;2022-09-09T08:22:50;3.20;;;2.90;;
57297;SDS011;43147;50.972;18.210;2022-09-09T08:25:16;2.40;;;2.20;;
57297;SDS011;43147;50.972;18.210;2022-09-09T08:27:42;3.40;;;2.70;;
57297;SDS011;43147;50.972;18.210;2022-09-09T08:30:08;2.70;;;2.50;;
57297;SDS011;43147;50.972;18.210;2022-09-09T08:32:35;3.30;;;2.70;;
57297;SDS011;43147;50.972;18.210;2022-09-09T08:35:00;2.80;;;2.60;;
57297;SDS011;43147;50.972;18.210;2022-09-09T08:37:27;2.40;;;1.80;;
57297;SDS011;43147;50.972;18.210;2022-09-09T08:39:52;3.30;;;1.60;;
57297;SDS011;43147;50.972;18.210;2022-09-09T08:42:25;2.50;;;1.80;;
57297;SDS011;43147;50.972;18.210;2022-09-09T08:48:24;3.60;;;1.90;;
57297;SDS011;43147;50.972;18.210;2022-09-09T08:50:57;3.60;;;2.10;;
57297;SDS011;43147;50.972;18.210;2022-09-09T08:53:27;3.80;;;2.90;;
57297;SDS011;43147;50.972;18.210;2022-09-09T08:58:30;4.60;;;2.40;;
57297;SDS011;43147;50.972;18.210;2022-09-09T09:01:02;3.10;;;2.20;;
57297;SDS011;43147;50.972;18.210;2022-09-09T09:06:23;2.70;;;1.90;;
57297;SDS011;43147;50.972;18.210;2022-09-09T09:12:10;2.20;;;1.70;;
57297;SDS011;43147;50.972;18.210;2022-09-09T09:14:41;2.50;;;1.40;;
57297;SDS011;43147;50.972;18.210;2022-09-09T09:17:10;2.90;;;1.70;;
57297;SDS011;43147;50.972;18.210;2022-09-09T09:19:38;1.60;;;1.40;;
57297;SDS011;43147;50.972;18.210;2022-09-09T09:30:14;2.20;;;1.30;;
57297;SDS011;43147;50.972;18.210;2022-09-09T09:33:05;2.20;;;1.40;;
57297;SDS011;43147;50.972;18.210;2022-09-09T09:35:37;3.40;;;1.30;;
57297;SDS011;43147;50.972;18.210;2022-09-09T09:38:09;1.80;;;1.20;;
57297;SDS011;43147;50.972;18.210;2022-09-09T09:40:55;3.40;;;1.80;;
57297;SDS011;43147;50.972;18.210;2022-09-09T09:43:32;1.80;;;1.20;;
57297;SDS011;43147;50.972;18.210;2022-09-09T09:48:25;1.90;;;0.80;;
57297;SDS011;43147;50.972;18.210;2022-09-09T09:51:08;2.40;;;1.20;;
57297;SDS011;43147;50.972;18.210;2022-09-09T09:53:39;1.80;;;1.10;;
57297;SDS011;43147;50.972;18.210;2022-09-09T09:56:11;1.40;;;1.10;;
57297;SDS011;43147;50.972;18.210;2022-09-09T10:03:53;1.90;;;0.70;;
57297;SDS011;43147;50.972;18.210;2022-09-09T10:06:33;2.40;;;0.80;;
57297;SDS011;43147;50.972;18.210;2022-09-09T10:09:01;3.70;;;0.90;;
57297;SDS011;43147;50.972;18.210;2022-09-09T10:17:15;3.20;;;0.70;;
57297;SDS011;43147;50.972;18.210;2022-09-09T10:19:50;4.40;;;0.70;;
57297;SDS011;43147;50.972;18.210;2022-09-09T10:27:38;2.00;;;1.00;;
57297;SDS011;43147;50.972;18.210;2022-09-09T10:38:52;1.80;;;0.80;;
57297;SDS011;43147;50.972;18.210;2022-09-09T10:47:27;3.90;;;0.80;;
57297;SDS011;43147;50.972;18.210;2022-09-09T10:55:35;2.50;;;1.20;;
57297;SDS011;43147;50.972;18.210;2022-09-09T10:58:04;3.10;;;0.80;;
57297;SDS011;43147;50.972;18.210;2022-09-09T11:00:39;2.00;;;0.60;;
57297;SDS011;43147;50.972;18.210;2022-09-09T11:03:09;2.70;;;0.60;;
57297;SDS011;43147;50.972;18.210;2022-09-09T11:05:44;1.60;;;0.70;;
57297;SDS011;43147;50.972;18.210;2022-09-09T11:08:18;2.50;;;0.90;;
57297;SDS011;43147;50.972;18.210;2022-09-09T11:11:02;1.90;;;0.70;;
57297;SDS011;43147;50.972;18.210;2022-09-09T11:19:16;1.50;;;0.70;;
57297;SDS011;43147;50.972;18.210;2022-09-09T11:21:57;1.30;;;0.90;;
57297;SDS011;43147;50.972;18.210;2022-09-09T11:24:37;3.40;;;0.90;;
57297;SDS011;43147;50.972;18.210;2022-09-09T11:27:10;2.30;;;0.90;;
57297;SDS011;43147;50.972;18.210;2022-09-09T11:35:16;2.00;;;1.20;;
57297;SDS011;43147;50.972;18.210;2022-09-09T11:37:49;0.80;;;0.70;;
57297;SDS011;43147;50.972;18.210;2022-09-09T11:40:23;1.70;;;0.80;;
57297;SDS011;43147;50.972;18.210;2022-09-09T11:45:38;1.90;;;0.50;;
57297;SDS011;43147;50.972;18.210;2022-09-09T11:48:20;1.70;;;0.80;;
57297;SDS011;43147;50.972;18.210;2022-09-09T11:50:57;1.70;;;1.10;;
57297;SDS011;43147;50.972;18.210;2022-09-09T11:53:28;3.40;;;0.60;;
57297;SDS011;43147;50.972;18.210;2022-09-09T11:58:56;1.00;;;0.50;;
57297;SDS011;43147;50.972;18.210;2022-09-09T12:01:26;1.50;;;0.70;;
57297;SDS011;43147;50.972;18.210;2022-09-09T12:04:17;1.70;;;0.80;;
57297;SDS011;43147;50.972;18.210;2022-09-09T12:06:51;3.70;;;0.60;;
57297;SDS011;43147;50.972;18.210;2022-09-09T12:14:43;2.80;;;0.70;;
57297;SDS011;43147;50.972;18.210;2022-09-09T12:17:19;1.40;;;0.60;;
57297;SDS011;43147;50.972;18.210;2022-09-09T12:19:47;1.60;;;0.60;;
57297;SDS011;43147;50.972;18.210;2022-09-09T12:22:26;1.10;;;0.60;;
57297;SDS011;43147;50.972;18.210;2022-09-09T12:30:31;1.30;;;0.90;;
57297;SDS011;43147;50.972;18.210;2022-09-09T12:33:10;1.90;;;0.90;;
57297;SDS011;43147;50.972;18.210;2022-09-09T12:35:38;1.20;;;0.60;;
57297;SDS011;43147;50.972;18.210;2022-09-09T12:38:05;1.50;;;0.70;;
57297;SDS011;43147;50.972;18.210;2022-09-09T12:40:36;2.60;;;0.80;;
57297;SDS011;43147;50.972;18.210;2022-09-09T12:43:20;2.80;;;0.60;;
57297;SDS011;43147;50.972;18.210;2022-09-09T12:45:48;1.60;;;0.80;;
57297;SDS011;43147;50.972;18.210;2022-09-09T12:48:16;1.40;;;0.70;;
57297;SDS011;43147;50.972;18.210;2022-09-09T12:50:45;3.20;;;0.90;;
57297;SDS011;43147;50.972;18.210;2022-09-09T12:53:22;2.20;;;0.80;;
57297;SDS011;43147;50.972;18.210;2022-09-09T12:55:56;2.10;;;0.90;;
57297;SDS011;43147;50.972;18.210;2022-09-09T12:58:22;1.20;;;0.80;;
57297;SDS011;43147;50.972;18.210;2022-09-09T13:00:51;3.20;;;0.90;;
57297;SDS011;43147;50.972;18.210;2022-09-09T13:03:19;1.50;;;0.80;;
57297;SDS011;43147;50.972;18.210;2022-09-09T13:05:46;2.00;;;1.20;;
57297;SDS011;43147;50.972;18.210;2022-09-09T13:08:12;2.10;;;0.70;;
57297;SDS011;43147;50.972;18.210;2022-09-09T13:13:16;3.30;;;0.90;;
57297;SDS011;43147;50.972;18.210;2022-09-09T13:15:53;2.60;;;0.90;;
57297;SDS011;43147;50.972;18.210;2022-09-09T13:18:21;5.20;;;1.10;;
57297;SDS011;43147;50.972;18.210;2022-09-09T13:20:48;1.50;;;0.80;;
57297;SDS011;43147;50.972;18.210;2022-09-09T13:23:15;2.90;;;0.90;;
57297;SDS011;43147;50.972;18.210;2022-09-09T13:25:42;4.70;;;1.00;;
57297;SDS011;43147;50.972;18.210;2022-09-09T13:28:23;2.10;;;1.00;;
57297;SDS011;43147;50.972;18.210;2022-09-09T13:31:00;2.20;;;0.80;;
57297;SDS011;43147;50.972;18.210;2022-09-09T13:36:03;2.80;;;1.10;;
57297;SDS011;43147;50.972;18.210;2022-09-09T13:38:33;2.80;;;0.80;;
57297;SDS011;43147;50.972;18.210;2022-09-09T13:41:02;2.20;;;0.80;;
57297;SDS011;43147;50.972;18.210;2022-09-09T13:43:37;3.10;;;0.80;;
57297;SDS011;43147;50.972;18.210;2022-09-09T13:51:36;1.60;;;0.90;;
57297;SDS011;43147;50.972;18.210;2022-09-09T13:54:11;2.30;;;0.70;;
57297;SDS011;43147;50.972;18.210;2022-09-09T13:56:37;3.60;;;0.90;;
57297;SDS011;43147;50.972;18.210;2022-09-09T13:59:05;2.50;;;0.80;;
57297;SDS011;43147;50.972;18.210;2022-09-09T14:01:31;1.90;;;1.00;;
57297;SDS011;43147;50.972;18.210;2022-09-09T14:03:59;2.70;;;0.90;;
57297;SDS011;43147;50.972;18.210;2022-09-09T14:06:25;1.00;;;0.70;;
57297;SDS011;43147;50.972;18.210;2022-09-09T14:08:51;1.50;;;0.70;;
57297;SDS011;43147;50.972;18.210;2022-09-09T14:11:17;3.50;;;0.80;;
57297;SDS011;43147;50.972;18.210;2022-09-09T14:13:43;3.40;;;0.60;;
57297;SDS011;43147;50.972;18.210;2022-09-09T14:16:09;1.50;;;0.80;;
57297;SDS011;43147;50.972;18.210;2022-09-09T14:18:35;4.30;;;0.80;;
57297;SDS011;43147;50.972;18.210;2022-09-09T14:21:00;3.70;;;0.80;;
57297;SDS011;43147;50.972;18.210;2022-09-09T14:23:27;1.90;;;0.90;;
57297;SDS011;43147;50.972;18.210;2022-09-09T14:25:54;3.10;;;1.10;;
57297;SDS011;43147;50.972;18.210;2022-09-09T14:28:20;2.90;;;1.00;;
57297;SDS011;43147;50.972;18.210;2022-09-09T14:30:46;1.40;;;0.80;;
57297;SDS011;43147;50.972;18.210;2022-09-09T14:33:12;4.30;;;1.10;;
57297;SDS011;43147;50.972;18.210;2022-09-09T14:35:39;3.10;;;0.80;;
57297;SDS011;43147;50.972;18.210;2022-09-09T14:38:06;2.30;;;0.60;;
57297;SDS011;43147;50.972;18.210;2022-09-09T14:40:33;3.60;;;0.90;;
57297;SDS011;43147;50.972;18.210;2022-09-09T14:43:00;1.40;;;0.70;;
57297;SDS011;43147;50.972;18.210;2022-09-09T14:45:26;2.30;;;0.60;;
57297;SDS011;43147;50.972;18.210;2022-09-09T14:47:52;2.70;;;0.80;;
57297;SDS011;43147;50.972;18.210;2022-09-09T14:50:18;1.50;;;0.90;;
57297;SDS011;43147;50.972;18.210;2022-09-09T14:52:44;2.10;;;0.90;;
57297;SDS011;43147;50.972;18.210;2022-09-09T14:55:11;1.40;;;0.70;;
57297;SDS011;43147;50.972;18.210;2022-09-09T14:57:36;1.70;;;0.70;;
57297;SDS011;43147;50.972;18.210;2022-09-09T15:00:04;1.30;;;0.80;;
57297;SDS011;43147;50.972;18.210;2022-09-09T15:02:30;2.00;;;1.10;;
57297;SDS011;43147;50.972;18.210;2022-09-09T15:04:56;1.20;;;0.90;;
57297;SDS011;43147;50.972;18.210;2022-09-09T15:07:23;1.80;;;0.80;;
57297;SDS011;43147;50.972;18.210;2022-09-09T15:09:49;1.80;;;0.80;;
57297;SDS011;43147;50.972;18.210;2022-09-09T15:12:15;1.70;;;0.70;;
57297;SDS011;43147;50.972;18.210;2022-09-09T15:14:42;1.50;;;0.90;;
57297;SDS011;43147;50.972;18.210;2022-09-09T15:17:08;1.70;;;0.80;;
57297;SDS011;43147;50.972;18.210;2022-09-09T15:19:34;1.30;;;0.80;;
57297;SDS011;43147;50.972;18.210;2022-09-09T15:22:00;2.60;;;0.70;;
57297;SDS011;43147;50.972;18.210;2022-09-09T15:24:26;1.90;;;0.80;;
57297;SDS011;43147;50.972;18.210;2022-09-09T15:26:51;2.00;;;0.70;;
57297;SDS011;43147;50.972;18.210;2022-09-09T15:29:17;1.60;;;0.80;;
57297;SDS011;43147;50.972;18.210;2022-09-09T15:31:44;1.10;;;0.60;;
57297;SDS011;43147;50.972;18.210;2022-09-09T15:34:10;3.50;;;0.80;;
57297;SDS011;43147;50.972;18.210;2022-09-09T15:36:40;1.60;;;1.00;;
57297;SDS011;43147;50.972;18.210;2022-09-09T15:39:10;1.50;;;0.90;;
57297;SDS011;43147;50.972;18.210;2022-09-09T15:41:40;6.20;;;1.00;;
57297;SDS011;43147;50.972;18.210;2022-09-09T15:44:06;5.10;;;0.90;;
57297;SDS011;43147;50.972;18.210;2022-09-09T15:46:32;2.60;;;1.40;;
57297;SDS011;43147;50.972;18.210;2022-09-09T15:49:10;2.50;;;1.50;;
57297;SDS011;43147;50.972;18.210;2022-09-09T15:51:38;4.10;;;2.00;;
57297;SDS011;43147;50.972;18.210;2022-09-09T15:54:09;4.40;;;1.70;;
57297;SDS011;43147;50.972;18.210;2022-09-09T15:56:37;2.80;;;2.00;;
57297;SDS011;43147;50.972;18.210;2022-09-09T15:59:02;3.10;;;1.80;;
57297;SDS011;43147;50.972;18.210;2022-09-09T16:01:29;2.70;;;1.60;;
57297;SDS011;43147;50.972;18.210;2022-09-09T16:03:56;5.00;;;1.60;;
57297;SDS011;43147;50.972;18.210;2022-09-09T16:06:23;4.30;;;1.80;;
57297;SDS011;43147;50.972;18.210;2022-09-09T16:08:50;4.60;;;2.20;;
57297;SDS011;43147;50.972;18.210;2022-09-09T16:11:21;3.10;;;2.00;;
57297;SDS011;43147;50.972;18.210;2022-09-09T16:13:51;6.70;;;2.90;;
57297;SDS011;43147;50.972;18.210;2022-09-09T16:16:19;7.20;;;3.30;;
57297;SDS011;43147;50.972;18.210;2022-09-09T16:18:48;6.40;;;3.70;;
57297;SDS011;43147;50.972;18.210;2022-09-09T16:21:18;8.30;;;3.70;;
57297;SDS011;43147;50.972;18.210;2022-09-09T16:23:45;5.30;;;3.20;;
57297;SDS011;43147;50.972;18.210;2022-09-09T16:26:13;7.30;;;3.30;;
57297;SDS011;43147;50.972;18.210;2022-09-09T16:28:40;7.70;;;3.00;;
57297;SDS011;43147;50.972;18.210;2022-09-09T16:31:07;5.70;;;3.00;;
57297;SDS011;43147;50.972;18.210;2022-09-09T16:33:35;4.20;;;2.80;;
57297;SDS011;43147;50.972;18.210;2022-09-09T16:36:05;5.90;;;3.00;;
57297;SDS011;43147;50.972;18.210;2022-09-09T16:38:35;5.30;;;3.60;;
57297;SDS011;43147;50.972;18.210;2022-09-09T16:41:02;8.20;;;4.10;;
57297;SDS011;43147;50.972;18.210;2022-09-09T16:43:30;4.30;;;2.60;;
57297;SDS011;43147;50.972;18.210;2022-09-09T16:45:55;6.50;;;3.50;;
57297;SDS011;43147;50.972;18.210;2022-09-09T16:48:21;4.70;;;3.00;;
57297;SDS011;43147;50.972;18.210;2022-09-09T16:50:47;4.40;;;3.40;;
57297;SDS011;43147;50.972;18.210;2022-09-09T16:53:13;6.10;;;3.70;;
57297;SDS011;43147;50.972;18.210;2022-09-09T16:55:39;5.60;;;3.90;;
57297;SDS011;43147;50.972;18.210;2022-09-09T16:58:06;6.00;;;3.90;;
57297;SDS011;43147;50.972;18.210;2022-09-09T17:00:34;5.10;;;3.80;;
57297;SDS011;43147;50.972;18.210;2022-09-09T17:03:00;6.10;;;4.80;;
57297;SDS011;43147;50.972;18.210;2022-09-09T17:05:25;8.10;;;4.30;;
57297;SDS011;43147;50.972;18.210;2022-09-09T17:07:51;8.80;;;4.70;;